Terminal Aerodrome Forecast
Issued by NWS

Home | Current Version | Previous Version | Text Only | Print | Product List | Glossary Off
Versions: 1 2 3 4 5 6 7 8 9 10 11 12 13 14 15 16 17 18 19 20 21 22 23 24 25

797
FTUS43 KBIS 231130
TAFMOT
TAF
KMOT 231130Z 2312/2412 30005KT P6SM -SHSN OVC015
      TEMPO 2312/2315 01004KT 4SM -SN BR BKN009
     FM231500 01007KT P6SM BKN015 OVC025
     FM232300 35007KT P6SM FEW020 SCT035=

USA.gov is the U.S. government's official web portal to all federal, state and local government web resources and services.